Impacts TAF Board
For situational awareness. Not to be used for flight planning purposes.
IDs:

KDTW - Detroit Metro/Wayne, MI, US

Issued at 1502 UTC 16 Feb 2019
Updated at 1503 UTC 16 Feb 2019
Potential Impact None Slight Moderate High
Time1453Z 16/16Z 16/17Z 16/18Z 16/19Z 16/20Z 16/21Z 16/22Z 16/23Z 17/00Z 17/01Z 17/02Z 17/03Z 17/04Z>>
Type OBS PRVL PRVL PRVL PRVL PRVL PRVL PRVL PRVL PRVL PRVL PRVL PRVL PRVL
VIS 10 >6 >6 >6 >6 >6 >6 >6 >6 >6 >6 >6 >6 >6
CIG 18 18 18 22 22 -- -- -- -- -- -- -- -- --
Cover OVC OVC OVC BKN BKN SCT SCT SCT SCT SCT SCT SCT SCT SCT
FltCat MVFR MVFR MVFR MVFR MVFR VFR VFR VFR VFR VFR VFR VFR VFR VFR
WX -- -- -- -- -- -- -- -- -- -- -- -- -- --
WDir 330 330 330 340 340 350 350 350 350 20 20 20 20 20
WSpd 5 6 6 5 5 5 5 5 5 5 5 5 5 5
WGst -- -- -- -- -- -- -- -- -- -- -- -- -- --
Raw TAF
KDTW 161502Z 1615/1718 33006KT P6SM OVC018
  FM161800 34005KT P6SM BKN022
  FM162000 35005KT P6SM SCT025
  FM170000 02005KT P6SM SCT250
  FM171000 04007KT P6SM SCT120 OVC150
  FM171500 05010KT P6SM SCT070 OVC100


Raw METAR
KDTW 161453Z 33005KT 10SM OVC018 M05/M10 A3010 RMK AO2 SLP203 T10501100 51010
KDTW 161353Z 31007KT 10SM OVC018 M05/M10 A3010 RMK AO2 SLP203 T10501100
KDTW 161253Z 31004KT 10SM OVC019 M05/M10 A3009 RMK AO2 SLP198 T10501100

METAR Board
Radar Display
Forecast Discussion
For situational awareness. Not to be used for flight planning purposes.